Amagi Galaxy — V7VE9 — position and weather

sailwx.info

Track history (hours):
 
Tides and Currents Weather Stations Pressure Air Temp Water Temp Dewpoint Dewpoint Depression Visibility Wind Speed Wind Dir Waves Ship Positions

Amagi Galaxy

Last reported at 2015-Sep-01 07:32 UTC. Time now 2015-Sep-01 08:02 UTC.
Position N 37°57' W 121°19'.

Length 152 m; draft 7.5 m.

Type: Ship. MMSI: 538004105.

Date/timePositionNaut miles runAvg speedWind from/ knotsBaromVisibWave heightAir tempDewpointWater temp
2015-Sep-01 07:32N 37°57' W 121°19'0 0.0
2015-Sep-01 06:32N 37°57' W 121°19'0 0.0
2015-Sep-01 05:23N 37°57' W 121°19'0 0.0
2015-Sep-01 04:32N 37°57' W 121°19'0 0.0
2015-Sep-01 03:32N 37°57' W 121°19'0 0.0
2015-Sep-01 02:32N 37°57' W 121°19'0 0.0
2015-Sep-01 01:32N 37°57' W 121°19'0 0.0
2015-Sep-01 00:32N 37°57' W 121°19'0 0.0
2015-Aug-31 23:32N 37°57' W 121°19'0 0.0
2015-Aug-31 22:32N 37°57' W 121°19'0 0.0
2015-Aug-31 21:29N 37°57' W 121°19'0 0.0
2015-Aug-31 20:32N 37°57' W 121°19'0 0.1
2015-Aug-31 19:32N 37°57' W 121°19'0 0.0
2015-Aug-31 18:32N 37°57' W 121°19'0 0.0
2015-Aug-31 17:32N 37°57' W 121°19'0 0.0
2015-Aug-31 16:32N 37°57' W 121°19'0 0.0
2015-Aug-31 15:32N 37°57' W 121°19'0 0.0
2015-Aug-31 14:32N 37°57' W 121°19'0 0.0
2015-Aug-31 13:32N 37°57' W 121°19'0 0.0
2015-Aug-31 12:32N 37°57' W 121°19'0 0.0
2015-Aug-31 11:32N 37°57' W 121°19'0 0.0
2015-Aug-31 10:29N 37°57' W 121°19'0 0.0
2015-Aug-31 09:32N 37°57' W 121°19'0 0.0
2015-Aug-31 08:33N 37°57' W 121°19'0 0.0
2015-Aug-31 07:33N 37°57' W 121°19'2 1.9
2015-Aug-31 06:33N 37°58' W 121°22'5 5.0
2015-Aug-31 05:33N 38°00' W 121°27'6 6.3
2015-Aug-31 04:33N 38°04' W 121°34'6 5.6
2015-Aug-31 03:33N 38°04' W 121°41'9 8.4
2015-Aug-31 02:26N 38°02' W 121°52'7 6.5
2015-Aug-31 01:25N 38°04' W 122°00'6 5.5
2015-Aug-31 00:19N 38°02' W 122°08'6 7.2
2015-Aug-30 23:31N 38°04' W 122°15'8 8.1
2015-Aug-30 22:33N 38°01' W 122°24'7 6.7
2015-Aug-30 21:33N 37°54' W 122°22'1 0.7
2015-Aug-30 20:32N 37°55' W 122°22'0 0.0
2015-Aug-30 19:32N 37°55' W 122°22'0 0.0
2015-Aug-30 18:32N 37°55' W 122°22'0 0.0
2015-Aug-30 17:32N 37°55' W 122°22'0 0.0
2015-Aug-30 16:32N 37°55' W 122°22'0 0.0
2015-Aug-30 15:29N 37°55' W 122°22'0 0.0
2015-Aug-30 14:32N 37°55' W 122°22'0 0.0
2015-Aug-30 13:32N 37°55' W 122°22'0 0.0
2015-Aug-30 12:32N 37°55' W 122°22'0 0.0
2015-Aug-30 11:32N 37°55' W 122°22'0 0.0
2015-Aug-30 10:32N 37°55' W 122°22'0 0.0
2015-Aug-30 09:32N 37°55' W 122°22'0 0.0
2015-Aug-30 08:29N 37°55' W 122°22'0 0.0
2015-Aug-30 07:32N 37°55' W 122°22'0 0.0
2015-Aug-30 06:32N 37°55' W 122°22'0 0.0
2015-Aug-30 05:32N 37°55' W 122°22'0 0.0
2015-Aug-30 04:32N 37°55' W 122°22'0 0.0
2015-Aug-30 03:32N 37°55' W 122°22'0 0.0
2015-Aug-30 02:32N 37°55' W 122°22'0 0.0
2015-Aug-30 01:32N 37°55' W 122°22'0 0.0
2015-Aug-30 00:32N 37°55' W 122°22'0 0.0
2015-Aug-29 23:32N 37°55' W 122°22'0 0.0
2015-Aug-29 22:32N 37°55' W 122°22'0 0.0
2015-Aug-29 21:29N 37°55' W 122°22'0 0.0
2015-Aug-29 20:29N 37°55' W 122°22'0 0.0
2015-Aug-29 19:32N 37°55' W 122°22'0 0.0
2015-Aug-29 18:32N 37°55' W 122°22'0 0.0
2015-Aug-29 17:32N 37°55' W 122°22'0 0.0
2015-Aug-29 16:32N 37°55' W 122°22'0 0.0
2015-Aug-29 15:32N 37°55' W 122°22'0 0.0
2015-Aug-29 14:32N 37°55' W 122°22'0 0.0
2015-Aug-29 13:32N 37°55' W 122°22'0 0.0
2015-Aug-29 12:32N 37°55' W 122°22'0 0.0
2015-Aug-29 11:32N 37°55' W 122°22'0 0.0
2015-Aug-29 10:32N 37°55' W 122°22'0 0.0
2015-Aug-29 09:32N 37°55' W 122°22'0 0.0
2015-Aug-29 08:32N 37°55' W 122°22'0 0.0
2015-Aug-29 07:32N 37°55' W 122°22'0 0.0
2015-Aug-29 06:32N 37°55' W 122°22'0 0.0
2015-Aug-29 05:32N 37°55' W 122°22'0 0.0
2015-Aug-29 04:29N 37°55' W 122°22'0 0.0
2015-Aug-29 03:32N 37°55' W 122°22'0 0.0
2015-Aug-29 02:32N 37°55' W 122°22'0 0.0
2015-Aug-29 01:32N 37°55' W 122°22'0 0.0
2015-Aug-29 00:32N 37°55' W 122°22'0 0.0
2015-Aug-28 23:32N 37°55' W 122°22'0 0.0
2015-Aug-28 22:32N 37°55' W 122°22'0 0.0
2015-Aug-28 21:32N 37°55' W 122°22'0 0.0
2015-Aug-28 20:32N 37°55' W 122°22'0 0.0
2015-Aug-28 19:32N 37°55' W 122°22'0 0.0
2015-Aug-28 18:32N 37°55' W 122°22'0 0.0
2015-Aug-28 17:33N 37°55' W 122°22'0 0.2
2015-Aug-28 16:33N 37°55' W 122°22'4 3.8
2015-Aug-28 15:33N 37°52' W 122°25'1010.2
2015-Aug-28 14:34N 37°47' W 122°36'9 9.0
2015-Aug-28 13:34N 37°41' W 122°45'9 9.0
2015-Aug-28 12:34N 37°36' W 122°54'1211.8
2015-Aug-28 11:34N 37°30' W 123°07'1211.6
2015-Aug-28 10:33N 37°31' W 123°22'1212.4
2015-Aug-28 09:34N 37°34' W 123°37'1612.3
2015-Aug-28 08:16N 37°38' W 123°56'2412.4
2015-Aug-28 06:18N 37°44' W 124°26'2412.6
2015-Aug-28 04:22N 37°50' W 124°56'9 1.9
2015-Aug-27 23:30N 37°52' W 125°07'1111.2
2015-Aug-27 22:33N 37°54' W 125°20'1313.0
2015-Aug-27 21:33N 37°57' W 125°36'1312.6
2015-Aug-27 20:33N 38°01' W 125°52'1212.3
2015-Aug-27 19:33N 38°04' W 126°07'1211.9
2015-Aug-27 18:33N 38°07' W 126°21'  
Track history (hours):
 
Tides and Currents Weather Stations Pressure Air Temp Water Temp Dewpoint Dewpoint Depression Visibility Wind Speed Wind Dir Waves Ship Positions

Amagi Galaxy

Last reported at 2015-Sep-01 07:32 UTC. Time now 2015-Sep-01 08:02 UTC.
Position N 37°57' W 121°19'.

Length 152 m; draft 7.5 m.

Type: Ship. MMSI: 538004105.

Date/timePositionNaut miles runAvg speedWind from/ knotsBaromVisibWave heightAir tempDewpointWater temp
2015-Sep-01 07:32N 37°57' W 121°19'0 0.0
2015-Sep-01 06:32N 37°57' W 121°19'0 0.0
2015-Sep-01 05:23N 37°57' W 121°19'0 0.0
2015-Sep-01 04:32N 37°57' W 121°19'0 0.0
2015-Sep-01 03:32N 37°57' W 121°19'0 0.0
2015-Sep-01 02:32N 37°57' W 121°19'0 0.0
2015-Sep-01 01:32N 37°57' W 121°19'0 0.0
2015-Sep-01 00:32N 37°57' W 121°19'0 0.0
2015-Aug-31 23:32N 37°57' W 121°19'0 0.0
2015-Aug-31 22:32N 37°57' W 121°19'0 0.0
2015-Aug-31 21:29N 37°57' W 121°19'0 0.0
2015-Aug-31 20:32N 37°57' W 121°19'0 0.1
2015-Aug-31 19:32N 37°57' W 121°19'0 0.0
2015-Aug-31 18:32N 37°57' W 121°19'0 0.0
2015-Aug-31 17:32N 37°57' W 121°19'0 0.0
2015-Aug-31 16:32N 37°57' W 121°19'0 0.0
2015-Aug-31 15:32N 37°57' W 121°19'0 0.0
2015-Aug-31 14:32N 37°57' W 121°19'0 0.0
2015-Aug-31 13:32N 37°57' W 121°19'0 0.0
2015-Aug-31 12:32N 37°57' W 121°19'0 0.0
2015-Aug-31 11:32N 37°57' W 121°19'0 0.0
2015-Aug-31 10:29N 37°57' W 121°19'0 0.0
2015-Aug-31 09:32N 37°57' W 121°19'0 0.0
2015-Aug-31 08:33N 37°57' W 121°19'0 0.0
2015-Aug-31 07:33N 37°57' W 121°19'2 1.9
2015-Aug-31 06:33N 37°58' W 121°22'5 5.0
2015-Aug-31 05:33N 38°00' W 121°27'6 6.3
2015-Aug-31 04:33N 38°04' W 121°34'6 5.6
2015-Aug-31 03:33N 38°04' W 121°41'9 8.4
2015-Aug-31 02:26N 38°02' W 121°52'7 6.5
2015-Aug-31 01:25N 38°04' W 122°00'6 5.5
2015-Aug-31 00:19N 38°02' W 122°08'6 7.2
2015-Aug-30 23:31N 38°04' W 122°15'8 8.1
2015-Aug-30 22:33N 38°01' W 122°24'7 6.7
2015-Aug-30 21:33N 37°54' W 122°22'1 0.7
2015-Aug-30 20:32N 37°55' W 122°22'0 0.0
2015-Aug-30 19:32N 37°55' W 122°22'0 0.0
2015-Aug-30 18:32N 37°55' W 122°22'0 0.0
2015-Aug-30 17:32N 37°55' W 122°22'0 0.0
2015-Aug-30 16:32N 37°55' W 122°22'0 0.0
2015-Aug-30 15:29N 37°55' W 122°22'0 0.0
2015-Aug-30 14:32N 37°55' W 122°22'0 0.0
2015-Aug-30 13:32N 37°55' W 122°22'0 0.0
2015-Aug-30 12:32N 37°55' W 122°22'0 0.0
2015-Aug-30 11:32N 37°55' W 122°22'0 0.0
2015-Aug-30 10:32N 37°55' W 122°22'0 0.0
2015-Aug-30 09:32N 37°55' W 122°22'0 0.0
2015-Aug-30 08:29N 37°55' W 122°22'0 0.0
2015-Aug-30 07:32N 37°55' W 122°22'0 0.0
2015-Aug-30 06:32N 37°55' W 122°22'0 0.0
2015-Aug-30 05:32N 37°55' W 122°22'0 0.0
2015-Aug-30 04:32N 37°55' W 122°22'0 0.0
2015-Aug-30 03:32N 37°55' W 122°22'0 0.0
2015-Aug-30 02:32N 37°55' W 122°22'0 0.0
2015-Aug-30 01:32N 37°55' W 122°22'0 0.0
2015-Aug-30 00:32N 37°55' W 122°22'0 0.0
2015-Aug-29 23:32N 37°55' W 122°22'0 0.0
2015-Aug-29 22:32N 37°55' W 122°22'0 0.0
2015-Aug-29 21:29N 37°55' W 122°22'0 0.0
2015-Aug-29 20:29N 37°55' W 122°22'0 0.0
2015-Aug-29 19:32N 37°55' W 122°22'0 0.0
2015-Aug-29 18:32N 37°55' W 122°22'0 0.0
2015-Aug-29 17:32N 37°55' W 122°22'0 0.0
2015-Aug-29 16:32N 37°55' W 122°22'0 0.0
2015-Aug-29 15:32N 37°55' W 122°22'0 0.0
2015-Aug-29 14:32N 37°55' W 122°22'0 0.0
2015-Aug-29 13:32N 37°55' W 122°22'0 0.0
2015-Aug-29 12:32N 37°55' W 122°22'0 0.0
2015-Aug-29 11:32N 37°55' W 122°22'0 0.0
2015-Aug-29 10:32N 37°55' W 122°22'0 0.0
2015-Aug-29 09:32N 37°55' W 122°22'0 0.0
2015-Aug-29 08:32N 37°55' W 122°22'0 0.0
2015-Aug-29 07:32N 37°55' W 122°22'0 0.0
2015-Aug-29 06:32N 37°55' W 122°22'0 0.0
2015-Aug-29 05:32N 37°55' W 122°22'0 0.0
2015-Aug-29 04:29N 37°55' W 122°22'0 0.0
2015-Aug-29 03:32N 37°55' W 122°22'0 0.0
2015-Aug-29 02:32N 37°55' W 122°22'0 0.0
2015-Aug-29 01:32N 37°55' W 122°22'0 0.0
2015-Aug-29 00:32N 37°55' W 122°22'0 0.0
2015-Aug-28 23:32N 37°55' W 122°22'0 0.0
2015-Aug-28 22:32N 37°55' W 122°22'0 0.0
2015-Aug-28 21:32N 37°55' W 122°22'0 0.0
2015-Aug-28 20:32N 37°55' W 122°22'0 0.0
2015-Aug-28 19:32N 37°55' W 122°22'0 0.0
2015-Aug-28 18:32N 37°55' W 122°22'0 0.0
2015-Aug-28 17:33N 37°55' W 122°22'0 0.2
2015-Aug-28 16:33N 37°55' W 122°22'4 3.8
2015-Aug-28 15:33N 37°52' W 122°25'1010.2
2015-Aug-28 14:34N 37°47' W 122°36'9 9.0
2015-Aug-28 13:34N 37°41' W 122°45'9 9.0
2015-Aug-28 12:34N 37°36' W 122°54'1211.8
2015-Aug-28 11:34N 37°30' W 123°07'1211.6
2015-Aug-28 10:33N 37°31' W 123°22'1212.4
2015-Aug-28 09:34N 37°34' W 123°37'1612.3
2015-Aug-28 08:16N 37°38' W 123°56'2412.4
2015-Aug-28 06:18N 37°44' W 124°26'2412.6
2015-Aug-28 04:22N 37°50' W 124°56'9 1.9
2015-Aug-27 23:30N 37°52' W 125°07'1111.2
2015-Aug-27 22:33N 37°54' W 125°20'1313.0
2015-Aug-27 21:33N 37°57' W 125°36'1312.6
2015-Aug-27 20:33N 38°01' W 125°52'1212.3
2015-Aug-27 19:33N 38°04' W 126°07'1211.9
2015-Aug-27 18:33N 38°07' W 126°21'  

Dump ship's entire track history